createdAt,value
2018-03-21T00:00:04.092Z,99.90
2018-03-21T00:20:36.568Z,99.90
2018-03-21T00:23:04.996Z,99.90
2018-03-21T00:25:34.032Z,99.90
2018-03-21T00:46:07.096Z,99.90
2018-03-21T00:48:35.364Z,99.90
2018-03-21T00:51:03.648Z,99.90
2018-03-21T00:53:31.956Z,99.90
2018-03-21T00:56:00.202Z,99.90
2018-03-21T00:58:29.227Z,99.90
2018-03-21T01:18:59.136Z,99.90
2018-03-21T01:21:27.432Z,99.90
2018-03-21T01:23:56.480Z,99.90
2018-03-21T01:26:24.925Z,99.90
2018-03-21T01:28:53.934Z,99.90
2018-03-21T01:31:22.205Z,99.90
2018-03-21T01:33:51.313Z,99.90
2018-03-21T01:36:19.625Z,99.90
2018-03-21T01:38:47.902Z,99.90
2018-03-21T01:59:20.833Z,99.90
2018-03-21T02:01:49.120Z,99.90
2018-03-21T02:04:17.424Z,99.90
2018-03-21T02:06:46.498Z,99.90
2018-03-21T02:27:16.959Z,99.90
2018-03-21T02:29:46.022Z,99.90
2018-03-21T02:32:14.306Z,99.90
2018-03-21T02:34:42.579Z,99.90
2018-03-21T02:37:11.029Z,99.90
2018-03-21T02:39:40.031Z,99.90
2018-03-21T02:42:08.316Z,99.90
2018-03-21T03:02:39.952Z,99.90
2018-03-21T03:23:12.390Z,99.90
2018-03-21T03:25:40.670Z,99.90
2018-03-21T03:28:08.957Z,99.90
2018-03-21T03:30:37.274Z,99.90
2018-03-21T03:33:05.563Z,99.90
2018-03-21T03:53:38.179Z,99.90
2018-03-21T03:56:08.076Z,99.90
2018-03-21T04:16:39.108Z,99.90
2018-03-21T04:19:07.511Z,99.90
2018-03-21T04:21:35.766Z,99.90
2018-03-21T04:24:04.154Z,99.90
2018-03-21T04:26:32.457Z,99.90
2018-03-21T04:47:04.981Z,99.90
2018-03-21T04:49:33.288Z,99.90
2018-03-21T04:52:02.319Z,99.90
2018-03-21T04:54:30.606Z,99.90
2018-03-21T04:56:58.909Z,99.90
2018-03-21T04:59:27.171Z,99.90
2018-03-21T05:01:55.514Z,99.90
2018-03-21T05:22:27.661Z,99.90
2018-03-21T05:42:59.343Z,99.90
2018-03-21T05:45:27.640Z,99.90
2018-03-21T05:47:55.949Z,99.90
2018-03-21T05:50:24.256Z,99.90
2018-03-21T05:52:52.581Z,99.90
2018-03-21T06:13:23.116Z,99.90
2018-03-21T06:15:51.593Z,99.90
2018-03-21T06:18:21.312Z,99.90
2018-03-21T06:38:53.479Z,99.90
2018-03-21T06:41:21.740Z,99.90
2018-03-21T06:43:49.979Z,99.90
2018-03-21T06:46:19.164Z,99.90
2018-03-21T06:48:47.438Z,99.90
2018-03-21T06:51:15.696Z,99.90
2018-03-21T06:53:44.417Z,99.90
2018-03-21T06:56:12.691Z,99.90
2018-03-21T06:58:40.964Z,99.90
2018-03-21T07:19:21.016Z,99.90
2018-03-21T07:21:49.245Z,99.90
2018-03-21T07:24:17.521Z,99.90
2018-03-21T07:44:50.440Z,99.90
2018-03-21T07:47:19.542Z,99.90
2018-03-21T07:49:48.547Z,99.90
2018-03-21T07:52:17.699Z,99.90
2018-03-21T07:54:45.926Z,99.90
2018-03-21T07:57:14.931Z,99.90
2018-03-21T08:17:47.908Z,99.90
2018-03-21T08:20:16.213Z,99.90
2018-03-21T08:22:45.241Z,99.90
2018-03-21T08:43:16.242Z,99.90
2018-03-21T08:45:44.546Z,99.90
2018-03-21T08:48:13.666Z,99.90
2018-03-21T08:50:41.944Z,99.90
2018-03-21T08:53:11.004Z,99.90
2018-03-21T08:55:39.277Z,99.90
2018-03-21T08:58:08.031Z,99.90
2018-03-21T09:00:36.350Z,99.90
2018-03-21T09:03:04.571Z,99.90
2018-03-21T09:05:32.848Z,99.90
2018-03-21T09:08:01.886Z,99.90
2018-03-21T09:10:30.151Z,99.90
2018-03-21T09:12:58.463Z,99.90
2018-03-21T09:15:26.668Z,99.90
2018-03-21T09:17:54.945Z,99.90
2018-03-21T09:20:23.202Z,99.90
2018-03-21T09:22:51.472Z,99.90
2018-03-21T09:25:19.765Z,99.90
2018-03-21T09:27:48.179Z,99.90
2018-03-21T09:30:16.492Z,99.90
2018-03-21T09:32:44.731Z,99.90
2018-03-21T09:35:13.784Z,99.90
2018-03-21T09:37:42.081Z,99.90
2018-03-21T09:40:10.404Z,99.90
2018-03-21T09:42:38.680Z,99.90
2018-03-21T09:45:06.937Z,99.90
2018-03-21T09:47:36.744Z,99.90
2018-03-21T09:50:05.240Z,99.90
2018-03-21T09:52:33.524Z,99.90
2018-03-21T09:55:01.797Z,99.90
2018-03-21T09:57:30.283Z,99.90
2018-03-21T09:59:58.556Z,99.90
2018-03-21T10:02:26.881Z,99.90
2018-03-21T10:04:56.227Z,99.90
2018-03-21T10:25:27.192Z,99.90
2018-03-21T10:27:55.517Z,99.90
2018-03-21T10:30:23.935Z,99.90
2018-03-21T10:32:52.208Z,99.90
2018-03-21T10:35:20.526Z,99.90
2018-03-21T10:37:48.794Z,99.90
2018-03-21T10:40:17.014Z,99.90
2018-03-21T10:42:46.229Z,99.90
2018-03-21T10:45:14.427Z,99.90
2018-03-21T11:05:45.765Z,99.90
2018-03-21T11:26:18.019Z,99.90
2018-03-21T11:28:46.321Z,98.80
2018-03-21T11:31:14.664Z,95.80
2018-03-21T11:33:42.935Z,97.80
2018-03-21T11:36:11.572Z,95.70
2018-03-21T11:38:39.836Z,96.10
2018-03-21T11:41:08.101Z,95.90
2018-03-21T11:43:36.617Z,92.30
2018-03-21T11:46:04.872Z,94.90
2018-03-21T11:48:33.181Z,92.60
2018-03-21T11:51:01.511Z,95.00
2018-03-21T11:53:29.779Z,98.20
2018-03-21T11:55:59.105Z,96.80
2018-03-21T11:58:28.368Z,96.70
2018-03-21T12:00:56.663Z,99.90
2018-03-21T12:21:28.405Z,98.10
2018-03-21T12:23:56.655Z,99.00
2018-03-21T12:44:31.138Z,94.50
2018-03-21T12:47:00.104Z,92.00
2018-03-21T13:07:32.219Z,89.80
2018-03-21T13:10:00.497Z,82.80
2018-03-21T13:12:28.768Z,79.30
2018-03-21T13:33:01.984Z,78.00
2018-03-21T13:35:30.211Z,75.30
2018-03-21T13:37:58.488Z,75.60
2018-03-21T13:40:27.668Z,78.50
2018-03-21T13:42:55.932Z,78.10
2018-03-21T14:03:26.755Z,68.60
2018-03-21T14:05:55.056Z,64.90
2018-03-21T14:26:26.296Z,55.20
2018-03-21T14:46:59.561Z,34.60
2018-03-21T14:49:27.890Z,34.60
2018-03-21T14:51:56.935Z,46.10
2018-03-21T14:54:25.240Z,45.70
2018-03-21T14:56:53.540Z,49.50
2018-03-21T14:59:22.531Z,53.90
2018-03-21T15:01:50.817Z,53.40
2018-03-21T15:22:22.746Z,53.30
2018-03-21T15:24:51.045Z,49.90
2018-03-21T15:27:19.307Z,55.20
2018-03-21T15:47:49.353Z,43.70
2018-03-21T15:50:17.615Z,46.70
2018-03-21T15:52:45.905Z,46.60
2018-03-21T15:55:14.408Z,49.40
2018-03-21T15:57:42.676Z,53.20
2018-03-21T16:18:15.177Z,55.30
2018-03-21T16:20:43.410Z,55.00
2018-03-21T16:23:11.688Z,57.00
2018-03-21T16:43:44.939Z,70.60
2018-03-21T16:46:13.242Z,63.40
2018-03-21T16:48:42.264Z,69.60
2018-03-21T17:09:14.059Z,77.10
2018-03-21T17:29:47.598Z,75.50
2018-03-21T17:32:15.920Z,79.30
2018-03-21T17:52:48.126Z,93.80
2018-03-21T17:55:16.653Z,94.10
2018-03-21T17:57:55.319Z,96.10
2018-03-21T18:00:23.966Z,97.00
2018-03-21T18:20:54.811Z,99.90
2018-03-21T18:41:28.045Z,99.90
2018-03-21T18:43:57.705Z,99.90
2018-03-21T18:46:26.831Z,99.90
2018-03-21T18:48:55.132Z,99.90
2018-03-21T18:51:23.435Z,99.90
2018-03-21T18:53:51.889Z,99.90
2018-03-21T18:56:20.177Z,99.90
2018-03-21T18:58:48.479Z,99.90
2018-03-21T19:01:18.279Z,99.90
2018-03-21T19:03:47.540Z,99.90
2018-03-21T19:06:15.834Z,99.90
2018-03-21T19:08:44.222Z,99.90
2018-03-21T19:11:13.071Z,99.90
2018-03-21T19:31:45.196Z,99.90
2018-03-21T19:34:14.453Z,99.90
2018-03-21T19:36:42.754Z,99.90
2018-03-21T19:39:11.097Z,99.90
2018-03-21T19:41:39.625Z,99.90
2018-03-21T19:44:07.888Z,99.90
2018-03-21T19:46:36.184Z,99.90
2018-03-21T19:49:04.645Z,99.90
2018-03-21T19:51:32.941Z,99.90
2018-03-21T19:54:01.238Z,99.90
2018-03-21T19:56:30.435Z,99.90
2018-03-21T19:58:59.488Z,99.90
2018-03-21T20:19:31.698Z,99.90
2018-03-21T20:40:04.024Z,99.90
2018-03-21T20:42:32.606Z,99.90
2018-03-21T20:45:00.869Z,99.90
2018-03-21T21:05:33.190Z,99.90
2018-03-21T21:26:06.349Z,99.90
2018-03-21T21:28:34.631Z,99.90
2018-03-21T21:31:02.883Z,99.90
2018-03-21T21:33:31.218Z,99.90
2018-03-21T21:35:59.700Z,99.90
2018-03-21T21:38:27.986Z,99.90
2018-03-21T21:40:57.106Z,99.90
2018-03-21T22:01:31.356Z,99.90
2018-03-21T22:03:59.614Z,99.90
2018-03-21T22:06:28.676Z,99.90
2018-03-21T22:08:57.218Z,99.90
2018-03-21T22:29:28.855Z,99.90
2018-03-21T22:31:57.343Z,99.90
2018-03-21T22:52:28.576Z,99.90
2018-03-21T22:54:56.850Z,99.90
2018-03-21T22:57:25.135Z,99.90
2018-03-21T22:59:53.440Z,99.90
2018-03-21T23:02:21.933Z,99.90
2018-03-21T23:22:53.458Z,99.90
2018-03-21T23:43:25.656Z,99.90
2018-03-21T23:45:53.968Z,99.90
2018-03-21T23:48:22.247Z,99.90
2018-03-21T23:50:50.544Z,99.90
2018-03-21T23:53:18.869Z,99.90
2018-03-21T23:55:47.883Z,99.90
